sensor_id;sensor_type;location;lat;lon;timestamp;P1;durP1;ratioP1;P2;durP2;ratioP2
21639;SDS011;10981;45.462;10.974;2022-08-07T00:01:16;4.47;;;3.47;;
21639;SDS011;10981;45.462;10.974;2022-08-07T00:04:05;5.13;;;3.22;;
21639;SDS011;10981;45.462;10.974;2022-08-07T00:06:37;7.28;;;3.03;;
21639;SDS011;10981;45.462;10.974;2022-08-07T00:09:18;5.97;;;3.33;;
21639;SDS011;10981;45.462;10.974;2022-08-07T00:12:01;6.43;;;3.20;;
21639;SDS011;10981;45.462;10.974;2022-08-07T00:14:30;4.75;;;3.00;;
21639;SDS011;10981;45.462;10.974;2022-08-07T00:16:59;3.17;;;2.97;;
21639;SDS011;10981;45.462;10.974;2022-08-07T00:19:30;3.35;;;2.60;;
21639;SDS011;10981;45.462;10.974;2022-08-07T00:22:18;3.08;;;2.78;;
21639;SDS011;10981;45.462;10.974;2022-08-07T00:25:04;4.25;;;3.28;;
21639;SDS011;10981;45.462;10.974;2022-08-07T00:27:41;3.85;;;3.40;;
21639;SDS011;10981;45.462;10.974;2022-08-07T00:30:20;10.77;;;3.58;;
21639;SDS011;10981;45.462;10.974;2022-08-07T00:32:55;13.43;;;5.13;;
21639;SDS011;10981;45.462;10.974;2022-08-07T00:35:25;11.30;;;5.40;;
21639;SDS011;10981;45.462;10.974;2022-08-07T00:37:57;9.25;;;4.80;;
21639;SDS011;10981;45.462;10.974;2022-08-07T00:40:26;9.70;;;5.15;;
21639;SDS011;10981;45.462;10.974;2022-08-07T00:43:10;17.10;;;8.15;;
21639;SDS011;10981;45.462;10.974;2022-08-07T00:45:59;17.35;;;6.95;;
21639;SDS011;10981;45.462;10.974;2022-08-07T00:48:29;24.10;;;8.32;;
21639;SDS011;10981;45.462;10.974;2022-08-07T00:50:58;32.63;;;8.88;;
21639;SDS011;10981;45.462;10.974;2022-08-07T00:53:28;19.00;;;7.47;;
21639;SDS011;10981;45.462;10.974;2022-08-07T00:56:16;12.30;;;6.35;;
21639;SDS011;10981;45.462;10.974;2022-08-07T00:58:44;12.18;;;6.13;;
21639;SDS011;10981;45.462;10.974;2022-08-07T01:01:16;12.70;;;6.25;;
21639;SDS011;10981;45.462;10.974;2022-08-07T01:03:47;14.57;;;7.85;;
21639;SDS011;10981;45.462;10.974;2022-08-07T01:06:26;12.25;;;6.82;;
21639;SDS011;10981;45.462;10.974;2022-08-07T01:08:56;12.43;;;6.70;;
21639;SDS011;10981;45.462;10.974;2022-08-07T01:11:28;12.38;;;6.63;;
21639;SDS011;10981;45.462;10.974;2022-08-07T01:14:18;12.98;;;6.53;;
21639;SDS011;10981;45.462;10.974;2022-08-07T01:16:56;15.05;;;6.97;;
21639;SDS011;10981;45.462;10.974;2022-08-07T01:19:28;11.75;;;6.78;;
21639;SDS011;10981;45.462;10.974;2022-08-07T01:21:58;7.47;;;6.65;;
21639;SDS011;10981;45.462;10.974;2022-08-07T01:24:34;8.70;;;5.85;;
21639;SDS011;10981;45.462;10.974;2022-08-07T01:27:04;10.88;;;6.07;;
21639;SDS011;10981;45.462;10.974;2022-08-07T01:29:47;9.02;;;5.70;;
21639;SDS011;10981;45.462;10.974;2022-08-07T01:32:18;8.98;;;6.07;;
21639;SDS011;10981;45.462;10.974;2022-08-07T01:34:50;11.73;;;6.30;;
21639;SDS011;10981;45.462;10.974;2022-08-07T01:37:20;8.52;;;5.88;;
21639;SDS011;10981;45.462;10.974;2022-08-07T01:39:51;7.88;;;5.28;;
21639;SDS011;10981;45.462;10.974;2022-08-07T01:42:34;9.83;;;5.77;;
21639;SDS011;10981;45.462;10.974;2022-08-07T01:45:24;8.73;;;5.65;;
21639;SDS011;10981;45.462;10.974;2022-08-07T01:48:10;9.07;;;5.75;;
21639;SDS011;10981;45.462;10.974;2022-08-07T01:50:53;8.55;;;5.75;;
21639;SDS011;10981;45.462;10.974;2022-08-07T01:53:34;6.70;;;5.13;;
21639;SDS011;10981;45.462;10.974;2022-08-07T01:56:33;8.15;;;5.22;;
21639;SDS011;10981;45.462;10.974;2022-08-07T01:59:25;8.32;;;5.53;;
21639;SDS011;10981;45.462;10.974;2022-08-07T02:02:04;10.52;;;5.20;;
21639;SDS011;10981;45.462;10.974;2022-08-07T02:04:59;6.40;;;5.72;;
21639;SDS011;10981;45.462;10.974;2022-08-07T02:07:36;10.77;;;5.22;;
21639;SDS011;10981;45.462;10.974;2022-08-07T02:10:32;6.80;;;5.47;;
21639;SDS011;10981;45.462;10.974;2022-08-07T02:13:11;6.18;;;5.20;;
21639;SDS011;10981;45.462;10.974;2022-08-07T02:15:51;6.03;;;5.43;;
21639;SDS011;10981;45.462;10.974;2022-08-07T02:18:22;8.10;;;5.10;;
21639;SDS011;10981;45.462;10.974;2022-08-07T02:23:32;5.82;;;5.30;;
21639;SDS011;10981;45.462;10.974;2022-08-07T02:26:04;10.40;;;5.20;;
21639;SDS011;10981;45.462;10.974;2022-08-07T02:28:54;6.65;;;5.07;;
21639;SDS011;10981;45.462;10.974;2022-08-07T02:31:24;8.80;;;5.20;;
21639;SDS011;10981;45.462;10.974;2022-08-07T02:33:55;5.55;;;5.05;;
21639;SDS011;10981;45.462;10.974;2022-08-07T02:36:41;6.50;;;5.90;;
21639;SDS011;10981;45.462;10.974;2022-08-07T02:39:15;10.05;;;4.93;;
21639;SDS011;10981;45.462;10.974;2022-08-07T02:42:05;6.80;;;4.88;;
21639;SDS011;10981;45.462;10.974;2022-08-07T02:44:42;5.68;;;5.10;;
21639;SDS011;10981;45.462;10.974;2022-08-07T02:47:18;5.20;;;4.70;;
21639;SDS011;10981;45.462;10.974;2022-08-07T02:49:55;5.97;;;5.32;;
21639;SDS011;10981;45.462;10.974;2022-08-07T02:52:31;4.15;;;3.83;;
21639;SDS011;10981;45.462;10.974;2022-08-07T02:55:06;6.72;;;4.90;;
21639;SDS011;10981;45.462;10.974;2022-08-07T02:58:05;5.40;;;4.20;;
21639;SDS011;10981;45.462;10.974;2022-08-07T03:00:39;4.07;;;3.67;;
21639;SDS011;10981;45.462;10.974;2022-08-07T03:03:14;4.20;;;3.90;;
21639;SDS011;10981;45.462;10.974;2022-08-07T03:05:51;7.90;;;4.32;;
21639;SDS011;10981;45.462;10.974;2022-08-07T03:08:22;6.20;;;4.68;;
21639;SDS011;10981;45.462;10.974;2022-08-07T03:10:57;5.43;;;4.13;;
21639;SDS011;10981;45.462;10.974;2022-08-07T03:13:33;5.43;;;4.90;;
21639;SDS011;10981;45.462;10.974;2022-08-07T03:16:16;5.00;;;4.22;;
21639;SDS011;10981;45.462;10.974;2022-08-07T03:18:54;6.15;;;5.18;;
21639;SDS011;10981;45.462;10.974;2022-08-07T03:21:24;7.10;;;5.32;;
21639;SDS011;10981;45.462;10.974;2022-08-07T03:23:54;5.93;;;4.90;;
21639;SDS011;10981;45.462;10.974;2022-08-07T03:26:46;4.97;;;4.40;;
21639;SDS011;10981;45.462;10.974;2022-08-07T03:29:32;4.30;;;3.90;;
21639;SDS011;10981;45.462;10.974;2022-08-07T03:32:18;4.47;;;4.07;;
21639;SDS011;10981;45.462;10.974;2022-08-07T03:35:01;4.45;;;3.78;;
21639;SDS011;10981;45.462;10.974;2022-08-07T03:37:45;3.63;;;3.33;;
21639;SDS011;10981;45.462;10.974;2022-08-07T03:40:25;4.03;;;3.72;;
21639;SDS011;10981;45.462;10.974;2022-08-07T03:43:05;5.32;;;3.65;;
21639;SDS011;10981;45.462;10.974;2022-08-07T03:45:44;4.78;;;4.32;;
21639;SDS011;10981;45.462;10.974;2022-08-07T03:48:17;4.82;;;4.38;;
21639;SDS011;10981;45.462;10.974;2022-08-07T03:50:46;4.80;;;4.30;;
21639;SDS011;10981;45.462;10.974;2022-08-07T03:53:26;7.60;;;3.83;;
21639;SDS011;10981;45.462;10.974;2022-08-07T03:56:19;5.57;;;4.22;;
21639;SDS011;10981;45.462;10.974;2022-08-07T03:59:05;3.58;;;3.28;;
21639;SDS011;10981;45.462;10.974;2022-08-07T04:01:46;3.55;;;2.80;;
21639;SDS011;10981;45.462;10.974;2022-08-07T04:04:20;3.17;;;2.47;;
21639;SDS011;10981;45.462;10.974;2022-08-07T04:06:53;3.75;;;3.45;;
21639;SDS011;10981;45.462;10.974;2022-08-07T04:09:23;3.45;;;3.15;;
21639;SDS011;10981;45.462;10.974;2022-08-07T04:12:12;6.03;;;4.88;;
21639;SDS011;10981;45.462;10.974;2022-08-07T04:14:56;6.35;;;5.25;;
21639;SDS011;10981;45.462;10.974;2022-08-07T04:17:29;6.55;;;5.15;;
21639;SDS011;10981;45.462;10.974;2022-08-07T04:20:19;6.53;;;5.35;;
21639;SDS011;10981;45.462;10.974;2022-08-07T04:25:46;8.70;;;5.70;;
21639;SDS011;10981;45.462;10.974;2022-08-07T04:28:16;6.60;;;5.65;;
21639;SDS011;10981;45.462;10.974;2022-08-07T04:30:49;7.05;;;5.88;;
21639;SDS011;10981;45.462;10.974;2022-08-07T04:33:31;7.40;;;5.30;;
21639;SDS011;10981;45.462;10.974;2022-08-07T04:36:03;6.38;;;5.75;;
21639;SDS011;10981;45.462;10.974;2022-08-07T04:38:36;6.13;;;5.32;;
21639;SDS011;10981;45.462;10.974;2022-08-07T04:41:05;7.45;;;5.15;;
21639;SDS011;10981;45.462;10.974;2022-08-07T04:43:45;6.15;;;5.40;;
21639;SDS011;10981;45.462;10.974;2022-08-07T04:47:23;7.97;;;5.07;;
21639;SDS011;10981;45.462;10.974;2022-08-07T04:53:25;5.93;;;4.90;;
21639;SDS011;10981;45.462;10.974;2022-08-07T05:05:39;6.85;;;5.25;;
21639;SDS011;10981;45.462;10.974;2022-08-07T05:11:34;5.97;;;3.78;;
21639;SDS011;10981;45.462;10.974;2022-08-07T05:14:26;7.15;;;4.43;;
21639;SDS011;10981;45.462;10.974;2022-08-07T05:17:20;10.48;;;3.88;;
21639;SDS011;10981;45.462;10.974;2022-08-07T05:20:16;9.32;;;3.70;;
21639;SDS011;10981;45.462;10.974;2022-08-07T05:22:51;8.18;;;4.30;;
21639;SDS011;10981;45.462;10.974;2022-08-07T05:25:25;4.60;;;3.47;;
21639;SDS011;10981;45.462;10.974;2022-08-07T05:28:14;3.85;;;3.50;;
21639;SDS011;10981;45.462;10.974;2022-08-07T05:30:50;6.45;;;4.30;;
21639;SDS011;10981;45.462;10.974;2022-08-07T05:33:21;7.85;;;3.90;;
21639;SDS011;10981;45.462;10.974;2022-08-07T05:35:52;4.78;;;3.95;;
21639;SDS011;10981;45.462;10.974;2022-08-07T05:38:23;7.65;;;4.88;;
21639;SDS011;10981;45.462;10.974;2022-08-07T05:41:13;6.72;;;4.40;;
21639;SDS011;10981;45.462;10.974;2022-08-07T05:43:48;4.57;;;4.10;;
21639;SDS011;10981;45.462;10.974;2022-08-07T05:46:39;6.47;;;3.75;;
21639;SDS011;10981;45.462;10.974;2022-08-07T05:49:09;6.43;;;3.60;;
21639;SDS011;10981;45.462;10.974;2022-08-07T05:51:44;5.93;;;4.68;;
21639;SDS011;10981;45.462;10.974;2022-08-07T05:54:18;5.13;;;4.00;;
21639;SDS011;10981;45.462;10.974;2022-08-07T05:57:07;7.10;;;4.05;;
21639;SDS011;10981;45.462;10.974;2022-08-07T05:59:38;4.60;;;4.13;;
21639;SDS011;10981;45.462;10.974;2022-08-07T06:02:26;4.30;;;3.90;;
21639;SDS011;10981;45.462;10.974;2022-08-07T06:05:01;5.22;;;4.15;;
21639;SDS011;10981;45.462;10.974;2022-08-07T06:07:37;6.43;;;4.00;;
21639;SDS011;10981;45.462;10.974;2022-08-07T06:10:26;6.72;;;4.22;;
21639;SDS011;10981;45.462;10.974;2022-08-07T06:12:55;6.10;;;4.60;;
21639;SDS011;10981;45.462;10.974;2022-08-07T06:15:29;8.65;;;4.28;;
21639;SDS011;10981;45.462;10.974;2022-08-07T06:18:11;7.78;;;4.20;;
21639;SDS011;10981;45.462;10.974;2022-08-07T06:20:44;5.47;;;4.38;;
21639;SDS011;10981;45.462;10.974;2022-08-07T06:23:35;7.38;;;3.92;;
21639;SDS011;10981;45.462;10.974;2022-08-07T06:26:26;7.47;;;4.18;;
21639;SDS011;10981;45.462;10.974;2022-08-07T06:28:56;6.82;;;3.90;;
21639;SDS011;10981;45.462;10.974;2022-08-07T06:31:30;6.40;;;4.32;;
21639;SDS011;10981;45.462;10.974;2022-08-07T06:34:16;5.82;;;4.10;;
21639;SDS011;10981;45.462;10.974;2022-08-07T06:36:47;9.23;;;4.53;;
21639;SDS011;10981;45.462;10.974;2022-08-07T06:39:23;9.10;;;4.53;;
21639;SDS011;10981;45.462;10.974;2022-08-07T06:42:33;6.55;;;4.07;;
21639;SDS011;10981;45.462;10.974;2022-08-07T06:45:15;8.02;;;4.10;;
21639;SDS011;10981;45.462;10.974;2022-08-07T06:47:54;4.95;;;3.72;;
21639;SDS011;10981;45.462;10.974;2022-08-07T06:50:36;8.48;;;4.22;;
21639;SDS011;10981;45.462;10.974;2022-08-07T06:53:14;7.00;;;3.67;;
21639;SDS011;10981;45.462;10.974;2022-08-07T06:56:07;5.72;;;3.95;;
21639;SDS011;10981;45.462;10.974;2022-08-07T06:58:42;7.18;;;3.67;;
21639;SDS011;10981;45.462;10.974;2022-08-07T07:01:32;6.50;;;3.90;;
21639;SDS011;10981;45.462;10.974;2022-08-07T07:04:14;7.97;;;3.95;;
21639;SDS011;10981;45.462;10.974;2022-08-07T07:07:00;4.63;;;3.20;;
21639;SDS011;10981;45.462;10.974;2022-08-07T07:09:46;4.15;;;3.75;;
21639;SDS011;10981;45.462;10.974;2022-08-07T07:12:34;7.15;;;4.18;;
21639;SDS011;10981;45.462;10.974;2022-08-07T07:15:22;5.13;;;4.30;;
21639;SDS011;10981;45.462;10.974;2022-08-07T07:18:09;5.90;;;4.13;;
21639;SDS011;10981;45.462;10.974;2022-08-07T07:21:21;4.38;;;3.58;;
21639;SDS011;10981;45.462;10.974;2022-08-07T07:24:18;7.30;;;4.13;;
21639;SDS011;10981;45.462;10.974;2022-08-07T07:26:47;4.65;;;3.70;;
21639;SDS011;10981;45.462;10.974;2022-08-07T07:29:20;7.53;;;3.95;;
21639;SDS011;10981;45.462;10.974;2022-08-07T07:32:12;5.43;;;3.80;;
21639;SDS011;10981;45.462;10.974;2022-08-07T07:34:43;5.82;;;3.47;;
21639;SDS011;10981;45.462;10.974;2022-08-07T07:37:14;8.68;;;3.50;;
21639;SDS011;10981;45.462;10.974;2022-08-07T07:40:07;4.78;;;3.67;;
21639;SDS011;10981;45.462;10.974;2022-08-07T07:42:43;7.85;;;4.00;;
21639;SDS011;10981;45.462;10.974;2022-08-07T07:45:20;4.53;;;3.15;;
21639;SDS011;10981;45.462;10.974;2022-08-07T07:48:16;4.80;;;3.38;;
21639;SDS011;10981;45.462;10.974;2022-08-07T07:51:04;4.72;;;3.00;;
21639;SDS011;10981;45.462;10.974;2022-08-07T07:53:38;4.65;;;3.13;;
21639;SDS011;10981;45.462;10.974;2022-08-07T07:56:19;4.68;;;2.90;;
21639;SDS011;10981;45.462;10.974;2022-08-07T07:59:03;3.00;;;2.80;;
21639;SDS011;10981;45.462;10.974;2022-08-07T08:01:36;2.60;;;2.40;;
21639;SDS011;10981;45.462;10.974;2022-08-07T08:04:28;2.63;;;2.42;;
21639;SDS011;10981;45.462;10.974;2022-08-07T08:06:59;3.28;;;2.97;;
21639;SDS011;10981;45.462;10.974;2022-08-07T08:09:34;6.00;;;2.95;;
21639;SDS011;10981;45.462;10.974;2022-08-07T08:12:24;4.40;;;3.70;;
21639;SDS011;10981;45.462;10.974;2022-08-07T08:15:13;3.75;;;3.20;;
21639;SDS011;10981;45.462;10.974;2022-08-07T08:17:41;4.93;;;3.40;;
21639;SDS011;10981;45.462;10.974;2022-08-07T08:20:31;5.18;;;3.40;;
21639;SDS011;10981;45.462;10.974;2022-08-07T08:23:02;3.72;;;3.00;;
21639;SDS011;10981;45.462;10.974;2022-08-07T08:25:54;4.10;;;3.30;;
21639;SDS011;10981;45.462;10.974;2022-08-07T08:28:44;4.63;;;2.95;;
21639;SDS011;10981;45.462;10.974;2022-08-07T08:31:19;6.13;;;3.47;;
21639;SDS011;10981;45.462;10.974;2022-08-07T08:34:14;2.35;;;2.15;;
21639;SDS011;10981;45.462;10.974;2022-08-07T08:36:55;2.40;;;2.20;;
21639;SDS011;10981;45.462;10.974;2022-08-07T08:39:25;2.55;;;2.35;;
21639;SDS011;10981;45.462;10.974;2022-08-07T08:45:43;2.33;;;2.15;;
21639;SDS011;10981;45.462;10.974;2022-08-07T08:48:38;3.75;;;2.65;;
21639;SDS011;10981;45.462;10.974;2022-08-07T08:51:18;5.35;;;2.50;;
21639;SDS011;10981;45.462;10.974;2022-08-07T08:54:15;4.93;;;2.65;;
21639;SDS011;10981;45.462;10.974;2022-08-07T08:57:06;2.22;;;1.80;;
21639;SDS011;10981;45.462;10.974;2022-08-07T08:59:46;2.63;;;1.92;;
21639;SDS011;10981;45.462;10.974;2022-08-07T09:05:45;2.88;;;1.77;;
21639;SDS011;10981;45.462;10.974;2022-08-07T09:23:05;1.75;;;1.40;;
21639;SDS011;10981;45.462;10.974;2022-08-07T09:26:30;4.15;;;1.85;;
21639;SDS011;10981;45.462;10.974;2022-08-07T09:32:30;2.88;;;1.80;;
21639;SDS011;10981;45.462;10.974;2022-08-07T09:35:56;2.45;;;2.20;;
21639;SDS011;10981;45.462;10.974;2022-08-07T09:38:45;2.60;;;1.55;;
21639;SDS011;10981;45.462;10.974;2022-08-07T09:44:20;3.17;;;1.83;;
21639;SDS011;10981;45.462;10.974;2022-08-07T09:47:33;2.83;;;2.30;;
21639;SDS011;10981;45.462;10.974;2022-08-07T09:53:19;3.40;;;2.10;;
21639;SDS011;10981;45.462;10.974;2022-08-07T09:55:56;3.75;;;2.55;;
21639;SDS011;10981;45.462;10.974;2022-08-07T10:01:24;3.92;;;2.45;;
21639;SDS011;10981;45.462;10.974;2022-08-07T10:07:43;3.35;;;2.65;;
21639;SDS011;10981;45.462;10.974;2022-08-07T10:16:34;3.97;;;2.85;;
21639;SDS011;10981;45.462;10.974;2022-08-07T10:30:51;2.58;;;2.38;;
21639;SDS011;10981;45.462;10.974;2022-08-07T10:42:36;4.30;;;2.00;;
21639;SDS011;10981;45.462;10.974;2022-08-07T10:48:23;2.25;;;2.03;;
21639;SDS011;10981;45.462;10.974;2022-08-07T10:51:20;3.47;;;2.50;;
21639;SDS011;10981;45.462;10.974;2022-08-07T10:57:33;2.63;;;2.13;;
21639;SDS011;10981;45.462;10.974;2022-08-07T11:00:08;3.58;;;2.40;;
21639;SDS011;10981;45.462;10.974;2022-08-07T11:03:00;3.67;;;2.30;;
21639;SDS011;10981;45.462;10.974;2022-08-07T11:06:35;4.30;;;2.50;;
21639;SDS011;10981;45.462;10.974;2022-08-07T11:09:23;3.83;;;2.53;;
21639;SDS011;10981;45.462;10.974;2022-08-07T11:12:18;2.92;;;2.72;;
21639;SDS011;10981;45.462;10.974;2022-08-07T11:14:59;2.33;;;2.13;;
21639;SDS011;10981;45.462;10.974;2022-08-07T11:26:34;3.13;;;2.92;;
21639;SDS011;10981;45.462;10.974;2022-08-07T11:32:16;4.85;;;2.55;;
21639;SDS011;10981;45.462;10.974;2022-08-07T11:34:53;2.50;;;2.30;;
21639;SDS011;10981;45.462;10.974;2022-08-07T11:37:33;2.63;;;2.40;;
21639;SDS011;10981;45.462;10.974;2022-08-07T11:44:13;3.83;;;2.40;;
21639;SDS011;10981;45.462;10.974;2022-08-07T11:49:54;2.80;;;2.60;;
21639;SDS011;10981;45.462;10.974;2022-08-07T11:53:09;3.38;;;3.08;;
21639;SDS011;10981;45.462;10.974;2022-08-07T11:59:23;4.82;;;4.43;;
21639;SDS011;10981;45.462;10.974;2022-08-07T12:11:14;3.08;;;2.78;;
21639;SDS011;10981;45.462;10.974;2022-08-07T12:14:07;3.05;;;2.75;;
21639;SDS011;10981;45.462;10.974;2022-08-07T12:16:50;2.90;;;2.50;;
21639;SDS011;10981;45.462;10.974;2022-08-07T12:19:33;2.90;;;2.63;;
21639;SDS011;10981;45.462;10.974;2022-08-07T12:25:28;2.58;;;2.38;;
21639;SDS011;10981;45.462;10.974;2022-08-07T12:32:14;2.60;;;2.40;;
21639;SDS011;10981;45.462;10.974;2022-08-07T12:34:53;2.58;;;2.38;;
21639;SDS011;10981;45.462;10.974;2022-08-07T12:37:24;2.35;;;2.15;;
21639;SDS011;10981;45.462;10.974;2022-08-07T12:40:21;2.60;;;2.40;;
21639;SDS011;10981;45.462;10.974;2022-08-07T12:43:12;2.80;;;2.60;;
21639;SDS011;10981;45.462;10.974;2022-08-07T12:46:12;3.20;;;2.30;;
21639;SDS011;10981;45.462;10.974;2022-08-07T12:52:11;3.80;;;2.35;;
21639;SDS011;10981;45.462;10.974;2022-08-07T12:57:43;2.88;;;2.67;;
21639;SDS011;10981;45.462;10.974;2022-08-07T13:00:39;2.80;;;2.60;;
21639;SDS011;10981;45.462;10.974;2022-08-07T13:03:47;2.50;;;2.30;;
21639;SDS011;10981;45.462;10.974;2022-08-07T13:15:20;3.05;;;2.40;;
21639;SDS011;10981;45.462;10.974;2022-08-07T13:18:15;2.50;;;2.30;;
21639;SDS011;10981;45.462;10.974;2022-08-07T13:21:24;2.88;;;2.67;;
21639;SDS011;10981;45.462;10.974;2022-08-07T13:24:37;2.90;;;2.70;;
21639;SDS011;10981;45.462;10.974;2022-08-07T13:27:23;3.15;;;2.80;;
21639;SDS011;10981;45.462;10.974;2022-08-07T13:30:23;2.83;;;2.63;;
21639;SDS011;10981;45.462;10.974;2022-08-07T13:37:26;2.88;;;2.50;;
21639;SDS011;10981;45.462;10.974;2022-08-07T13:39:34;2.83;;;2.63;;
21639;SDS011;10981;45.462;10.974;2022-08-07T13:42:36;2.63;;;2.42;;
21639;SDS011;10981;45.462;10.974;2022-08-07T13:45:06;2.58;;;2.45;;
21639;SDS011;10981;45.462;10.974;2022-08-07T13:47:57;2.85;;;2.65;;
21639;SDS011;10981;45.462;10.974;2022-08-07T13:50:35;3.50;;;2.85;;
21639;SDS011;10981;45.462;10.974;2022-08-07T13:53:28;2.58;;;2.20;;
21639;SDS011;10981;45.462;10.974;2022-08-07T13:56:21;3.08;;;2.80;;
21639;SDS011;10981;45.462;10.974;2022-08-07T13:59:10;3.08;;;2.58;;
21639;SDS011;10981;45.462;10.974;2022-08-07T14:04:30;2.60;;;2.40;;
21639;SDS011;10981;45.462;10.974;2022-08-07T14:07:04;2.53;;;2.33;;
21639;SDS011;10981;45.462;10.974;2022-08-07T14:09:36;2.78;;;2.58;;
21639;SDS011;10981;45.462;10.974;2022-08-07T14:12:35;3.00;;;2.80;;
21639;SDS011;10981;45.462;10.974;2022-08-07T14:18:16;3.55;;;2.30;;
21639;SDS011;10981;45.462;10.974;2022-08-07T14:24:04;2.33;;;2.15;;
21639;SDS011;10981;45.462;10.974;2022-08-07T14:26:54;5.57;;;2.50;;
21639;SDS011;10981;45.462;10.974;2022-08-07T14:29:26;2.80;;;2.58;;
21639;SDS011;10981;45.462;10.974;2022-08-07T14:32:20;2.97;;;2.33;;
21639;SDS011;10981;45.462;10.974;2022-08-07T14:34:52;2.60;;;2.40;;
21639;SDS011;10981;45.462;10.974;2022-08-07T14:37:22;2.50;;;2.30;;
21639;SDS011;10981;45.462;10.974;2022-08-07T14:40:05;4.50;;;2.60;;
21639;SDS011;10981;45.462;10.974;2022-08-07T14:43:12;2.67;;;2.47;;
21639;SDS011;10981;45.462;10.974;2022-08-07T14:46:02;2.67;;;2.47;;
21639;SDS011;10981;45.462;10.974;2022-08-07T14:48:33;2.60;;;2.40;;
21639;SDS011;10981;45.462;10.974;2022-08-07T14:51:08;3.00;;;2.47;;
21639;SDS011;10981;45.462;10.974;2022-08-07T14:53:43;2.83;;;2.47;;
21639;SDS011;10981;45.462;10.974;2022-08-07T14:56:33;2.88;;;2.67;;
21639;SDS011;10981;45.462;10.974;2022-08-07T14:59:08;2.70;;;2.50;;
21639;SDS011;10981;45.462;10.974;2022-08-07T15:02:05;2.80;;;2.60;;
21639;SDS011;10981;45.462;10.974;2022-08-07T15:04:59;3.97;;;2.72;;
21639;SDS011;10981;45.462;10.974;2022-08-07T15:07:30;2.50;;;2.30;;
21639;SDS011;10981;45.462;10.974;2022-08-07T15:10:20;3.53;;;3.22;;
21639;SDS011;10981;45.462;10.974;2022-08-07T15:12:59;3.00;;;2.63;;
21639;SDS011;10981;45.462;10.974;2022-08-07T15:15:44;2.90;;;2.70;;
21639;SDS011;10981;45.462;10.974;2022-08-07T15:18:37;5.45;;;2.90;;
21639;SDS011;10981;45.462;10.974;2022-08-07T15:21:14;3.38;;;2.95;;
21639;SDS011;10981;45.462;10.974;2022-08-07T15:24:09;2.45;;;2.22;;
21639;SDS011;10981;45.462;10.974;2022-08-07T15:27:13;3.15;;;2.95;;
21639;SDS011;10981;45.462;10.974;2022-08-07T15:29:51;2.65;;;2.45;;
21639;SDS011;10981;45.462;10.974;2022-08-07T15:32:43;3.33;;;2.70;;
21639;SDS011;10981;45.462;10.974;2022-08-07T15:35:36;2.78;;;2.58;;
21639;SDS011;10981;45.462;10.974;2022-08-07T15:38:27;3.40;;;2.45;;
21639;SDS011;10981;45.462;10.974;2022-08-07T15:41:17;2.90;;;2.70;;
21639;SDS011;10981;45.462;10.974;2022-08-07T15:44:11;2.63;;;2.50;;
21639;SDS011;10981;45.462;10.974;2022-08-07T15:46:45;4.50;;;3.30;;
21639;SDS011;10981;45.462;10.974;2022-08-07T15:49:26;2.60;;;2.40;;
21639;SDS011;10981;45.462;10.974;2022-08-07T15:52:21;2.83;;;2.63;;
21639;SDS011;10981;45.462;10.974;2022-08-07T15:54:57;3.72;;;2.47;;
21639;SDS011;10981;45.462;10.974;2022-08-07T15:57:30;2.70;;;2.50;;
21639;SDS011;10981;45.462;10.974;2022-08-07T16:00:15;2.97;;;2.78;;
21639;SDS011;10981;45.462;10.974;2022-08-07T16:03:13;2.70;;;2.50;;
21639;SDS011;10981;45.462;10.974;2022-08-07T16:06:11;2.97;;;2.50;;
21639;SDS011;10981;45.462;10.974;2022-08-07T16:08:40;3.53;;;2.65;;
21639;SDS011;10981;45.462;10.974;2022-08-07T16:11:22;2.58;;;2.38;;
21639;SDS011;10981;45.462;10.974;2022-08-07T16:14:06;2.33;;;2.20;;
21639;SDS011;10981;45.462;10.974;2022-08-07T16:16:59;2.45;;;2.25;;
21639;SDS011;10981;45.462;10.974;2022-08-07T16:28:24;4.63;;;2.40;;
21639;SDS011;10981;45.462;10.974;2022-08-07T16:34:24;2.50;;;2.30;;
21639;SDS011;10981;45.462;10.974;2022-08-07T16:55:51;2.55;;;2.13;;
21639;SDS011;10981;45.462;10.974;2022-08-07T16:59:17;3.90;;;2.30;;
21639;SDS011;10981;45.462;10.974;2022-08-07T17:08:07;2.97;;;2.63;;
21639;SDS011;10981;45.462;10.974;2022-08-07T17:13:39;2.88;;;2.67;;
21639;SDS011;10981;45.462;10.974;2022-08-07T17:16:51;5.32;;;2.50;;
21639;SDS011;10981;45.462;10.974;2022-08-07T17:19:41;2.22;;;1.88;;
21639;SDS011;10981;45.462;10.974;2022-08-07T17:25:57;3.00;;;2.28;;
21639;SDS011;10981;45.462;10.974;2022-08-07T17:34:36;3.10;;;2.90;;
21639;SDS011;10981;45.462;10.974;2022-08-07T17:37:28;2.70;;;2.50;;
21639;SDS011;10981;45.462;10.974;2022-08-07T17:40:36;6.30;;;2.50;;
21639;SDS011;10981;45.462;10.974;2022-08-07T17:43:25;2.63;;;2.42;;
21639;SDS011;10981;45.462;10.974;2022-08-07T17:46:18;2.30;;;2.20;;
21639;SDS011;10981;45.462;10.974;2022-08-07T17:55:58;2.60;;;2.40;;
21639;SDS011;10981;45.462;10.974;2022-08-07T18:01:24;2.80;;;2.60;;
21639;SDS011;10981;45.462;10.974;2022-08-07T18:04:27;3.50;;;2.80;;
21639;SDS011;10981;45.462;10.974;2022-08-07T18:10:02;2.55;;;2.35;;
21639;SDS011;10981;45.462;10.974;2022-08-07T18:13:08;3.00;;;2.70;;
21639;SDS011;10981;45.462;10.974;2022-08-07T18:16:18;5.32;;;3.45;;
21639;SDS011;10981;45.462;10.974;2022-08-07T18:19:09;8.75;;;4.53;;
21639;SDS011;10981;45.462;10.974;2022-08-07T18:22:14;4.07;;;3.38;;
21639;SDS011;10981;45.462;10.974;2022-08-07T18:24:53;5.00;;;3.58;;
21639;SDS011;10981;45.462;10.974;2022-08-07T18:31:04;7.07;;;4.75;;
21639;SDS011;10981;45.462;10.974;2022-08-07T18:34:28;6.78;;;4.50;;
21639;SDS011;10981;45.462;10.974;2022-08-07T18:43:11;3.53;;;3.22;;
21639;SDS011;10981;45.462;10.974;2022-08-07T18:46:04;3.97;;;3.10;;
21639;SDS011;10981;45.462;10.974;2022-08-07T19:01:19;3.25;;;2.80;;
21639;SDS011;10981;45.462;10.974;2022-08-07T19:04:40;3.25;;;3.00;;
21639;SDS011;10981;45.462;10.974;2022-08-07T19:10:51;3.83;;;3.35;;
21639;SDS011;10981;45.462;10.974;2022-08-07T19:18:53;3.35;;;2.80;;
21639;SDS011;10981;45.462;10.974;2022-08-07T19:21:35;5.38;;;3.53;;
21639;SDS011;10981;45.462;10.974;2022-08-07T19:27:11;4.40;;;4.07;;
21639;SDS011;10981;45.462;10.974;2022-08-07T19:30:08;5.20;;;3.53;;
21639;SDS011;10981;45.462;10.974;2022-08-07T19:33:02;4.63;;;3.40;;
21639;SDS011;10981;45.462;10.974;2022-08-07T19:35:45;7.53;;;3.60;;
21639;SDS011;10981;45.462;10.974;2022-08-07T19:38:25;4.70;;;3.50;;
21639;SDS011;10981;45.462;10.974;2022-08-07T19:40:56;4.05;;;3.65;;
21639;SDS011;10981;45.462;10.974;2022-08-07T19:43:27;4.53;;;4.03;;
21639;SDS011;10981;45.462;10.974;2022-08-07T19:46:17;4.93;;;4.03;;
21639;SDS011;10981;45.462;10.974;2022-08-07T19:48:56;4.03;;;3.60;;
21639;SDS011;10981;45.462;10.974;2022-08-07T19:51:35;4.72;;;3.72;;
21639;SDS011;10981;45.462;10.974;2022-08-07T19:54:20;4.05;;;3.75;;
21639;SDS011;10981;45.462;10.974;2022-08-07T19:57:02;4.95;;;3.60;;
21639;SDS011;10981;45.462;10.974;2022-08-07T19:59:53;5.20;;;3.95;;
21639;SDS011;10981;45.462;10.974;2022-08-07T20:02:32;4.57;;;4.18;;
21639;SDS011;10981;45.462;10.974;2022-08-07T20:05:23;5.47;;;4.10;;
21639;SDS011;10981;45.462;10.974;2022-08-07T20:07:57;6.57;;;4.10;;
21639;SDS011;10981;45.462;10.974;2022-08-07T20:10:29;4.07;;;3.67;;
21639;SDS011;10981;45.462;10.974;2022-08-07T20:13:22;4.35;;;3.95;;
21639;SDS011;10981;45.462;10.974;2022-08-07T20:16:10;4.25;;;3.78;;
21639;SDS011;10981;45.462;10.974;2022-08-07T20:19:03;5.07;;;4.15;;
21639;SDS011;10981;45.462;10.974;2022-08-07T20:21:39;4.40;;;4.00;;
21639;SDS011;10981;45.462;10.974;2022-08-07T20:24:27;5.85;;;3.80;;